Time;durP1;ratioP1;P1;durP2;ratioP2;P2;SDS_P1;SDS_P2;PMS_P1;PMS_P2;Temp;Humidity;BMP_temperature;BMP_pressure;BME280_temperature;BME280_humidity;BME280_pressure;Samples;Min_cycle;Max_cycle;Signal;HPM_P1;HPM_P2
2022/01/19 00:01:03;;;;;;;;;;;19.20;99.90;;;;;;5092349;28;20389;-73
2022/01/19 00:03:30;;;;;;;;;;;19.30;99.90;;;;;;5092343;28;20272;-73
2022/01/19 00:05:57;;;;;;;;;;;19.30;99.90;;;;;;5092204;28;19946;-73
2022/01/19 00:08:26;;;;;;;;;;;19.30;99.90;;;;;;5092035;28;20324;-73
2022/01/19 00:10:53;;;;;;;;;;;19.40;99.90;;;;;;5092190;28;19995;-73
2022/01/19 00:13:20;;;;;;;;;;;19.30;99.90;;;;;;5092125;28;19954;-73
2022/01/19 00:15:47;;;;;;;;;;;19.40;99.90;;;;;;5091627;28;19908;-73
2022/01/19 00:18:16;;;;;;;;;;;19.40;99.90;;;;;;5091682;28;19946;-73
2022/01/19 00:20:43;;;;;;;;;;;19.50;99.90;;;;;;5093131;28;19915;-72
2022/01/19 00:23:10;;;;;;;;;;;19.50;99.90;;;;;;5095833;28;19961;-73
2022/01/19 00:25:37;;;;;;;;;;;19.50;99.90;;;;;;5095970;28;20365;-73
2022/01/19 00:28:04;;;;;;;;;;;19.60;99.90;;;;;;5095450;28;19916;-73
2022/01/19 00:30:31;;;;;;;;;;;19.70;99.90;;;;;;5095738;28;19955;-73
2022/01/19 00:32:58;;;;;;;;;;;19.60;99.90;;;;;;5111378;28;20278;-72
2022/01/19 00:35:24;;;;;;;;;;;19.60;99.90;;;;;;5077537;28;20304;-73
2022/01/19 00:37:51;;;;;;;;;;;19.60;99.90;;;;;;5095129;28;20622;-72
2022/01/19 00:40:18;;;;;;;;;;;19.60;99.90;;;;;;5095537;28;20282;-72
2022/01/19 00:42:45;;;;;;;;;;;19.70;99.90;;;;;;5095480;28;19916;-72
2022/01/19 00:45:13;;;;;;;;;;;19.70;99.90;;;;;;5095809;28;19930;-73
2022/01/19 00:47:40;;;;;;;;;;;19.70;99.90;;;;;;5095466;28;19961;-73
2022/01/19 00:50:08;;;;;;;;;;;19.60;99.90;;;;;;5095339;28;19909;-73
2022/01/19 00:52:37;;;;;;;;;;;19.50;99.90;;;;;;5095483;28;19931;-73
2022/01/19 00:55:05;;;;;;;;;;;19.60;99.90;;;;;;5095491;28;20385;-73
2022/01/19 00:57:32;;;;;;;;;;;19.60;99.90;;;;;;5095453;28;19912;-72
2022/01/19 00:59:58;;;;;;;;;;;19.60;99.90;;;;;;5094842;28;20385;-72
2022/01/19 01:02:25;;;;;;;;;;;19.60;99.90;;;;;;5094915;28;20306;-73
2022/01/19 01:04:52;;;;;;;;;;;19.60;99.90;;;;;;5076867;28;19947;-72
2022/01/19 01:07:19;;;;;;;;;;;19.60;99.90;;;;;;5095189;28;19908;-72
2022/01/19 01:09:46;;;;;;;;;;;19.70;99.90;;;;;;5095399;28;19999;-72
2022/01/19 01:12:13;;;;;;;;;;;19.80;99.90;;;;;;5095089;28;20389;-72
2022/01/19 01:20:12;;;;;;;;;;;19.70;99.90;;;;;;5095094;28;19965;-73
2022/01/19 01:22:39;;;;;;;;;;;19.70;99.90;;;;;;5094911;28;19981;-73
2022/01/19 01:25:06;;;;;;;;;;;19.80;99.90;;;;;;5094911;28;19908;-73
2022/01/19 01:27:33;;;;;;;;;;;19.80;99.90;;;;;;5094805;28;19912;-71
2022/01/19 01:29:59;;;;;;;;;;;19.80;99.90;;;;;;5094548;28;20308;-72
2022/01/19 01:32:26;;;;;;;;;;;19.90;99.90;;;;;;5094286;28;19986;-73
2022/01/19 01:34:53;;;;;;;;;;;19.90;99.90;;;;;;5094654;28;19912;-72
2022/01/19 01:37:20;;;;;;;;;;;19.90;99.90;;;;;;5094443;28;19916;-72
2022/01/19 01:39:47;;;;;;;;;;;20.00;99.90;;;;;;5094413;28;20390;-72
2022/01/19 01:42:15;;;;;;;;;;;20.00;99.90;;;;;;5094358;28;20137;-73
2022/01/19 01:44:45;;;;;;;;;;;20.10;99.90;;;;;;5094429;28;19962;-72
2022/01/19 01:47:13;;;;;;;;;;;20.20;99.90;;;;;;5093979;28;20364;-72
2022/01/19 01:54:52;;;;;;;;;;;20.50;99.90;;;;;;5094900;28;19958;-72
2022/01/19 01:57:19;;;;;;;;;;;20.50;99.90;;;;;;5094194;28;19954;-72
2022/01/19 01:59:45;;;;;;;;;;;20.50;99.90;;;;;;5094160;28;19977;-71
2022/01/19 02:02:12;;;;;;;;;;;20.70;99.90;;;;;;5094035;28;19964;-71
2022/01/19 02:04:41;;;;;;;;;;;20.70;99.90;;;;;;5094020;28;19916;-72
2022/01/19 02:09:50;;;;;;;;;;;20.90;99.90;;;;;;5093966;28;20003;-70
2022/01/19 02:23:25;;;;;;;;;;;21.70;99.90;;;;;;5093913;28;19974;-71
2022/01/19 02:25:53;;;;;;;;;;;22.00;99.90;;;;;;5093582;28;20409;-71
2022/01/19 02:41:43;;;;;;;;;;;22.30;99.90;;;;;;5093488;28;19934;-71
2022/01/19 02:44:13;;;;;;;;;;;22.30;99.90;;;;;;5092309;28;19909;-72
2022/01/19 02:49:20;;;;;;;;;;;22.40;99.90;;;;;;5093229;28;19908;-71
2022/01/19 02:51:47;;;;;;;;;;;22.30;99.90;;;;;;5093030;28;19931;-73
2022/01/19 02:54:15;;;;;;;;;;;21.80;99.90;;;;;;5093040;28;19983;-72
2022/01/19 02:56:45;;;;;;;;;;;21.10;99.90;;;;;;5093184;28;19995;-72
2022/01/19 02:59:18;;;;;;;;;;;20.60;99.90;;;;;;5092877;28;19983;-72
2022/01/19 03:09:44;;;;;;;;;;;19.90;99.90;;;;;;5092787;28;19912;-72
2022/01/19 03:12:11;;;;;;;;;;;19.70;99.90;;;;;;5092818;28;20351;-73
2022/01/19 03:14:38;;;;;;;;;;;19.80;99.90;;;;;;5092892;28;19908;-72
2022/01/19 03:17:05;;;;;;;;;;;19.80;99.90;;;;;;5092598;28;19908;-72
2022/01/19 03:19:33;;;;;;;;;;;19.80;99.90;;;;;;5092774;28;19924;-72
2022/01/19 03:22:00;;;;;;;;;;;19.80;99.90;;;;;;5092368;28;19908;-72
2022/01/19 03:24:27;;;;;;;;;;;19.80;99.90;;;;;;5092294;28;19908;-72
2022/01/19 03:26:53;;;;;;;;;;;19.90;99.90;;;;;;5092424;28;19947;-71
2022/01/19 03:29:20;;;;;;;;;;;19.80;99.90;;;;;;5092476;28;19931;-72
2022/01/19 03:31:47;;;;;;;;;;;19.70;99.90;;;;;;5092420;28;19908;-72
2022/01/19 03:34:15;;;;;;;;;;;19.70;99.90;;;;;;5092640;28;19953;-72
2022/01/19 03:36:42;;;;;;;;;;;19.70;99.90;;;;;;5092435;28;19914;-73
2022/01/19 03:39:09;;;;;;;;;;;19.60;99.90;;;;;;5092150;28;19924;-73
2022/01/19 03:41:36;;;;;;;;;;;19.50;99.90;;;;;;5092397;28;20471;-72
2022/01/19 03:44:02;;;;;;;;;;;19.50;99.90;;;;;;5092314;28;19912;-72
2022/01/19 03:46:34;;;;;;;;;;;19.60;99.90;;;;;;5092196;28;19912;-72
2022/01/19 03:49:10;;;;;;;;;;;19.80;99.90;;;;;;5092386;28;20354;-72
2022/01/19 03:51:37;;;;;;;;;;;20.00;99.90;;;;;;5092076;28;19930;-71
2022/01/19 03:54:05;;;;;;;;;;;20.10;99.90;;;;;;5092705;28;19916;-72
2022/01/19 03:56:31;;;;;;;;;;;20.20;99.90;;;;;;5096727;28;19908;-72
2022/01/19 03:58:58;;;;;;;;;;;20.40;99.90;;;;;;5096300;28;19923;-72
2022/01/19 04:01:25;;;;;;;;;;;20.50;99.90;;;;;;5096152;28;19908;-72
2022/01/19 04:06:26;;;;;;;;;;;20.70;99.90;;;;;;5096297;28;19908;-72
2022/01/19 04:08:52;;;;;;;;;;;20.90;99.90;;;;;;5096291;28;20250;-71
2022/01/19 04:11:21;;;;;;;;;;;20.70;99.90;;;;;;5096278;28;19931;-72
2022/01/19 04:14:21;;;;;;;;;;;20.70;99.90;;;;;;5096076;28;19908;-73
2022/01/19 04:16:41;;;;;;;;;;;20.70;99.90;;;;;;5093836;28;19909;-72
2022/01/19 04:19:27;;;;;;;;;;;20.80;99.90;;;;;;5096102;28;19923;-72
2022/01/19 04:21:55;;;;;;;;;;;20.70;99.90;;;;;;5109126;28;19912;-72
2022/01/19 04:28:07;;;;;;;;;;;20.90;99.90;;;;;;5107651;27;20416;-72
2022/01/19 04:30:35;;;;;;;;;;;20.90;99.90;;;;;;5109781;28;19970;-72
2022/01/19 04:33:07;;;;;;;;;;;20.90;99.90;;;;;;5110201;28;19908;-72
2022/01/19 04:35:44;;;;;;;;;;;20.80;99.90;;;;;;5109238;28;20381;-71
2022/01/19 04:54:40;;;;;;;;;;;20.50;99.90;;;;;;5101646;28;19912;-71
2022/01/19 05:07:51;;;;;;;;;;;21.20;99.90;;;;;;5109154;28;20014;-71
2022/01/19 05:15:47;;;;;;;;;;;21.40;99.90;;;;;;5109314;28;19961;-72
2022/01/19 05:18:14;;;;;;;;;;;21.30;99.90;;;;;;5109577;28;20251;-71
2022/01/19 05:24:59;;;;;;;;;;;21.30;99.90;;;;;;5105967;27;19916;-71
2022/01/19 05:27:26;;;;;;;;;;;21.00;99.90;;;;;;5110141;28;19983;-71
2022/01/19 05:29:52;;;;;;;;;;;20.40;99.90;;;;;;5109978;28;19908;-71
2022/01/19 05:32:19;;;;;;;;;;;19.90;99.90;;;;;;5109994;28;19908;-72
2022/01/19 05:34:46;;;;;;;;;;;19.80;99.90;;;;;;5109753;28;20391;-72
2022/01/19 05:37:12;;;;;;;;;;;19.80;99.90;;;;;;5109872;28;19994;-72
2022/01/19 05:39:39;;;;;;;;;;;19.80;99.90;;;;;;5109976;28;19961;-72
2022/01/19 05:42:06;;;;;;;;;;;20.00;99.90;;;;;;5109246;28;19914;-72
2022/01/19 05:44:33;;;;;;;;;;;20.00;99.90;;;;;;5109577;28;19920;-71
2022/01/19 05:47:00;;;;;;;;;;;20.20;99.90;;;;;;5109273;28;19999;-72
2022/01/19 05:49:26;;;;;;;;;;;20.20;99.90;;;;;;5109225;28;19912;-72
2022/01/19 05:51:53;;;;;;;;;;;20.20;99.90;;;;;;5106984;28;19908;-71
2022/01/19 05:54:20;;;;;;;;;;;20.30;99.90;;;;;;5105234;28;19919;-71
2022/01/19 05:56:47;;;;;;;;;;;20.30;99.90;;;;;;5108058;28;20290;-71
2022/01/19 05:59:14;;;;;;;;;;;20.20;99.90;;;;;;5108215;28;19912;-71
2022/01/19 06:01:41;;;;;;;;;;;20.30;99.90;;;;;;5107126;28;19908;-71
2022/01/19 06:04:07;;;;;;;;;;;20.50;99.90;;;;;;5106800;28;20013;-71
2022/01/19 06:06:34;;;;;;;;;;;20.60;99.90;;;;;;5106972;28;19908;-71
2022/01/19 06:09:08;;;;;;;;;;;20.80;99.90;;;;;;5107126;28;19934;-71
2022/01/19 06:11:35;;;;;;;;;;;20.90;99.90;;;;;;5107212;28;19908;-72
2022/01/19 06:14:02;;;;;;;;;;;21.00;99.90;;;;;;5106807;28;19908;-71
2022/01/19 06:16:28;;;;;;;;;;;21.00;99.90;;;;;;5106231;28;19915;-72
2022/01/19 06:18:55;;;;;;;;;;;21.10;99.90;;;;;;5106219;28;20343;-72
2022/01/19 06:21:22;;;;;;;;;;;21.10;99.90;;;;;;5106990;28;20297;-72
2022/01/19 06:23:48;;;;;;;;;;;21.10;99.90;;;;;;5105769;28;19935;-71
2022/01/19 06:26:15;;;;;;;;;;;21.10;99.90;;;;;;5106394;28;20606;-70
2022/01/19 06:28:42;;;;;;;;;;;21.10;99.90;;;;;;5106889;28;20347;-71
2022/01/19 06:31:08;;;;;;;;;;;21.10;99.90;;;;;;5105980;28;19912;-71
2022/01/19 06:33:35;;;;;;;;;;;21.10;99.90;;;;;;5104783;28;20007;-71
2022/01/19 06:36:01;;;;;;;;;;;21.10;99.90;;;;;;5093441;28;19909;-71
2022/01/19 06:38:29;;;;;;;;;;;21.10;99.90;;;;;;5092924;28;19922;-71
2022/01/19 06:40:55;;;;;;;;;;;20.90;99.90;;;;;;5092561;28;19920;-71
2022/01/19 06:43:22;;;;;;;;;;;20.70;99.90;;;;;;5092177;28;20277;-72
2022/01/19 06:45:49;;;;;;;;;;;20.70;99.90;;;;;;5092372;28;20374;-71
2022/01/19 06:48:15;;;;;;;;;;;20.70;99.90;;;;;;5093056;28;19983;-72
2022/01/19 06:50:42;;;;;;;;;;;20.80;99.90;;;;;;5092615;28;20332;-71
2022/01/19 06:53:09;;;;;;;;;;;20.90;99.90;;;;;;5092768;28;19912;-72
2022/01/19 06:55:35;;;;;;;;;;;21.00;99.90;;;;;;5091727;28;20019;-72
2022/01/19 06:58:02;;;;;;;;;;;21.00;99.90;;;;;;5091808;28;19978;-71
2022/01/19 07:00:29;;;;;;;;;;;20.70;99.90;;;;;;5092267;28;19919;-73
2022/01/19 07:02:55;;;;;;;;;;;20.30;99.90;;;;;;5092151;28;20333;-73
2022/01/19 07:05:22;;;;;;;;;;;19.90;99.90;;;;;;5092418;28;20002;-74
2022/01/19 07:07:49;;;;;;;;;;;19.60;99.90;;;;;;5092435;28;19909;-73
2022/01/19 07:10:15;;;;;;;;;;;19.40;99.90;;;;;;5092160;28;19937;-72
2022/01/19 07:12:42;;;;;;;;;;;19.30;99.90;;;;;;5092559;28;20371;-71
2022/01/19 07:15:09;;;;;;;;;;;19.20;99.90;;;;;;5091868;28;19914;-72
2022/01/19 07:17:35;;;;;;;;;;;19.20;99.90;;;;;;5093168;28;19984;-72
2022/01/19 07:20:03;;;;;;;;;;;19.20;99.90;;;;;;5093189;28;20026;-72
2022/01/19 07:22:29;;;;;;;;;;;19.20;99.90;;;;;;5092091;28;19909;-71
2022/01/19 07:24:58;;;;;;;;;;;19.30;99.90;;;;;;5080903;28;19920;-72
2022/01/19 07:27:25;;;;;;;;;;;19.40;99.90;;;;;;5075878;28;19908;-71
2022/01/19 07:29:51;;;;;;;;;;;19.50;99.90;;;;;;5072568;28;19908;-72
2022/01/19 07:32:19;;;;;;;;;;;19.60;99.90;;;;;;5072708;28;20311;-71
2022/01/19 07:34:46;;;;;;;;;;;19.60;99.90;;;;;;5072499;28;19912;-72
2022/01/19 07:37:13;;;;;;;;;;;19.60;99.90;;;;;;5071874;28;19908;-73
2022/01/19 07:39:40;;;;;;;;;;;19.70;99.90;;;;;;5072245;28;19916;-71
2022/01/19 07:42:07;;;;;;;;;;;19.80;99.90;;;;;;5071876;28;20329;-72
2022/01/19 07:44:33;;;;;;;;;;;19.90;99.90;;;;;;5071605;28;19962;-72
2022/01/19 07:47:00;;;;;;;;;;;19.90;99.90;;;;;;5070765;28;19995;-72
2022/01/19 07:56:50;;;;;;;;;;;20.20;99.90;;;;;;5037204;27;3701177;-71
2022/01/19 07:59:17;;;;;;;;;;;20.30;99.90;;;;;;5168467;27;20476;-71
2022/01/19 08:01:44;;;;;;;;;;;20.40;99.90;;;;;;5168700;27;19907;-71
2022/01/19 08:04:10;;;;;;;;;;;20.50;99.90;;;;;;5168264;27;20353;-71
2022/01/19 08:06:37;;;;;;;;;;;20.60;99.90;;;;;;5151128;27;20301;-71
2022/01/19 08:09:04;;;;;;;;;;;20.50;99.90;;;;;;5171181;27;20282;-71
2022/01/19 08:11:31;;;;;;;;;;;20.60;99.90;;;;;;5172048;27;19936;-70
2022/01/19 08:13:58;;;;;;;;;;;20.50;99.90;;;;;;5171452;27;20285;-70
2022/01/19 08:16:24;;;;;;;;;;;20.50;99.90;;;;;;5171524;27;19926;-71
2022/01/19 08:18:51;;;;;;;;;;;20.50;99.90;;;;;;5171892;27;19911;-72
2022/01/19 08:21:18;;;;;;;;;;;20.50;99.90;;;;;;5171949;27;19997;-70
2022/01/19 08:23:44;;;;;;;;;;;20.50;99.90;;;;;;5171146;27;20343;-71
2022/01/19 08:26:16;;;;;;;;;;;20.50;99.90;;;;;;5171432;27;19907;-71
2022/01/19 08:28:44;;;;;;;;;;;20.50;99.90;;;;;;5171332;27;19911;-71
2022/01/19 08:31:10;;;;;;;;;;;20.50;99.90;;;;;;5171612;27;19907;-72
2022/01/19 08:33:37;;;;;;;;;;;20.50;99.90;;;;;;5171389;27;19907;-72
2022/01/19 08:36:04;;;;;;;;;;;20.60;99.90;;;;;;5171060;27;19927;-72
2022/01/19 08:38:32;;;;;;;;;;;20.40;99.90;;;;;;5171528;27;19974;-70
2022/01/19 08:40:58;;;;;;;;;;;20.20;99.90;;;;;;5171595;27;19906;-72
2022/01/19 08:43:25;;;;;;;;;;;20.10;99.90;;;;;;5171452;27;19915;-71
2022/01/19 08:45:52;;;;;;;;;;;20.00;99.90;;;;;;5170580;27;19911;-71
2022/01/19 08:48:19;;;;;;;;;;;20.00;99.90;;;;;;5171426;27;19907;-71
2022/01/19 08:50:46;;;;;;;;;;;20.10;99.90;;;;;;5171218;27;19947;-71
2022/01/19 08:53:13;;;;;;;;;;;20.10;99.90;;;;;;5171117;27;19907;-71
2022/01/19 08:55:40;;;;;;;;;;;20.20;99.90;;;;;;5170253;27;20421;-71
2022/01/19 08:58:07;;;;;;;;;;;20.20;99.90;;;;;;5171122;27;19907;-71
2022/01/19 09:00:35;;;;;;;;;;;20.20;99.90;;;;;;5171098;27;19911;-71
2022/01/19 09:03:01;;;;;;;;;;;20.20;99.90;;;;;;5170486;27;19907;-71
2022/01/19 09:05:28;;;;;;;;;;;20.30;99.90;;;;;;5170846;27;19990;-71
2022/01/19 09:07:55;;;;;;;;;;;20.30;99.90;;;;;;5139866;27;19913;-71
2022/01/19 09:10:22;;;;;;;;;;;20.30;99.90;;;;;;5157039;27;19914;-71
2022/01/19 09:12:49;;;;;;;;;;;20.30;99.90;;;;;;5157022;27;19907;-71
2022/01/19 09:15:18;;;;;;;;;;;20.40;99.90;;;;;;5156460;27;20376;-71
2022/01/19 09:17:45;;;;;;;;;;;20.40;99.90;;;;;;5156631;27;19914;-71
2022/01/19 09:20:12;;;;;;;;;;;20.40;99.90;;;;;;5156950;27;20250;-71
2022/01/19 09:22:39;;;;;;;;;;;20.40;99.90;;;;;;5156852;27;20009;-71
2022/01/19 09:25:07;;;;;;;;;;;20.30;99.90;;;;;;5155901;27;19907;-71
2022/01/19 09:27:34;;;;;;;;;;;20.30;99.90;;;;;;5156709;27;19907;-71
2022/01/19 09:30:01;;;;;;;;;;;20.30;99.90;;;;;;5156376;27;19998;-71
2022/01/19 09:32:28;;;;;;;;;;;20.30;99.90;;;;;;5156494;27;19915;-71
2022/01/19 09:34:58;;;;;;;;;;;20.40;99.90;;;;;;5155984;27;20007;-70
2022/01/19 09:37:25;;;;;;;;;;;20.30;99.90;;;;;;5156273;27;20357;-71
2022/01/19 09:39:51;;;;;;;;;;;20.30;99.90;;;;;;5156135;27;19914;-71
2022/01/19 09:42:18;;;;;;;;;;;20.30;99.90;;;;;;5156344;27;19911;-71
2022/01/19 09:44:45;;;;;;;;;;;20.40;99.90;;;;;;5137367;27;20333;-71
2022/01/19 09:47:12;;;;;;;;;;;20.40;99.90;;;;;;5156468;27;19914;-71
2022/01/19 09:49:39;;;;;;;;;;;20.40;99.90;;;;;;5156151;27;20376;-71
2022/01/19 09:52:05;;;;;;;;;;;20.40;99.90;;;;;;5155983;27;19996;-71
2022/01/19 09:54:32;;;;;;;;;;;20.40;99.90;;;;;;5155206;27;20361;-70
2022/01/19 09:56:59;;;;;;;;;;;20.20;99.90;;;;;;5155927;27;19961;-71
2022/01/19 09:59:26;;;;;;;;;;;20.00;99.90;;;;;;5155922;27;19907;-70
2022/01/19 10:01:57;;;;;;;;;;;19.90;99.90;;;;;;5155692;27;19994;-71
2022/01/19 10:04:31;;;;;;;;;;;20.00;99.90;;;;;;5150373;27;20376;-71
2022/01/19 10:07:11;;;;;;;;;;;20.00;99.90;;;;;;5135339;27;19960;-71
2022/01/19 10:09:48;;;;;;;;;;;20.00;99.90;;;;;;5134455;27;19908;-71
2022/01/19 10:17:54;;;;;;;;;;;20.00;99.90;;;;;;5134063;27;19957;-71
2022/01/19 10:20:22;;;;;;;;;;;20.10;99.90;;;;;;5134552;27;19953;-71
2022/01/19 10:22:49;;;;;;;;;;;20.20;99.90;;;;;;5134904;27;19908;-71
2022/01/19 10:25:16;;;;;;;;;;;20.20;99.90;;;;;;5133547;27;19961;-71
2022/01/19 10:27:45;;;;;;;;;;;20.30;99.90;;;;;;5134774;27;19911;-71
2022/01/19 10:30:19;;;;;;;;;;;20.30;99.90;;;;;;5134732;27;19911;-71
2022/01/19 10:32:46;;;;;;;;;;;20.30;99.90;;;;;;5134487;27;19920;-71
2022/01/19 10:35:16;;;;;;;;;;;20.20;99.90;;;;;;5134182;27;19923;-71
2022/01/19 10:37:43;;;;;;;;;;;20.20;99.90;;;;;;5134275;27;20429;-71
2022/01/19 10:40:17;;;;;;;;;;;20.20;99.90;;;;;;5133753;27;19907;-69
2022/01/19 10:42:44;;;;;;;;;;;20.30;99.90;;;;;;5134694;27;19912;-69
2022/01/19 10:45:12;;;;;;;;;;;20.30;99.90;;;;;;5133805;27;19908;-71
2022/01/19 10:47:38;;;;;;;;;;;20.30;99.90;;;;;;5134229;27;19907;-71
2022/01/19 10:50:05;;;;;;;;;;;20.30;99.90;;;;;;5134027;27;19915;-71
2022/01/19 10:52:37;;;;;;;;;;;20.40;99.90;;;;;;5134047;27;19964;-71
2022/01/19 10:55:06;;;;;;;;;;;20.30;99.90;;;;;;5132538;27;19923;-71
2022/01/19 10:57:38;;;;;;;;;;;20.40;99.90;;;;;;5134280;27;19988;-70
2022/01/19 11:00:10;;;;;;;;;;;20.40;99.90;;;;;;5133899;27;19907;-71
2022/01/19 11:02:38;;;;;;;;;;;20.40;99.90;;;;;;5134061;27;20299;-71
2022/01/19 11:05:04;;;;;;;;;;;20.50;99.90;;;;;;5133796;27;19907;-70
2022/01/19 11:07:31;;;;;;;;;;;20.50;99.90;;;;;;5133949;27;19960;-71
2022/01/19 11:10:09;;;;;;;;;;;20.40;99.90;;;;;;5133368;27;19907;-70
2022/01/19 11:12:48;;;;;;;;;;;20.50;99.90;;;;;;5133916;27;20349;-71
2022/01/19 11:15:17;;;;;;;;;;;20.50;99.90;;;;;;5133848;27;20002;-70
2022/01/19 11:17:45;;;;;;;;;;;20.50;99.90;;;;;;5133961;27;19939;-70
2022/01/19 11:20:13;;;;;;;;;;;20.50;99.90;;;;;;5133964;27;19947;-70
2022/01/19 11:22:41;;;;;;;;;;;20.50;99.90;;;;;;5133902;27;19912;-71
2022/01/19 11:25:16;;;;;;;;;;;20.50;99.90;;;;;;5133251;27;20281;-71
2022/01/19 11:27:44;;;;;;;;;;;20.50;99.90;;;;;;5132635;27;19918;-71
2022/01/19 11:30:22;;;;;;;;;;;20.50;99.90;;;;;;5133385;27;19914;-71
2022/01/19 11:33:07;;;;;;;;;;;20.50;99.90;;;;;;5133395;27;20425;-71
2022/01/19 11:35:35;;;;;;;;;;;20.50;99.90;;;;;;5133864;27;20369;-72
2022/01/19 11:38:21;;;;;;;;;;;20.60;99.90;;;;;;5133414;27;20044;-72
2022/01/19 11:40:48;;;;;;;;;;;20.50;99.90;;;;;;5133669;27;19914;-72
2022/01/19 11:43:21;;;;;;;;;;;20.50;99.90;;;;;;5133519;27;19915;-69
2022/01/19 11:45:48;;;;;;;;;;;20.50;99.90;;;;;;5133381;27;19995;-70
2022/01/19 11:48:25;;;;;;;;;;;20.50;99.90;;;;;;5133536;27;19907;-72
2022/01/19 11:50:53;;;;;;;;;;;20.60;99.90;;;;;;5133650;27;19911;-70
2022/01/19 11:53:20;;;;;;;;;;;20.50;99.90;;;;;;5133486;27;20006;-72
2022/01/19 11:56:04;;;;;;;;;;;20.50;99.90;;;;;;5133439;28;19927;-71
2022/01/19 11:58:31;;;;;;;;;;;20.50;99.90;;;;;;5135276;27;19907;-71
2022/01/19 12:00:58;;;;;;;;;;;20.60;99.90;;;;;;5154217;27;19915;-72
2022/01/19 12:03:38;;;;;;;;;;;20.60;99.90;;;;;;5154074;27;20358;-71
2022/01/19 12:06:05;;;;;;;;;;;20.50;99.90;;;;;;5153896;27;19907;-72
2022/01/19 12:08:36;;;;;;;;;;;20.50;99.90;;;;;;5154108;27;19942;-71
2022/01/19 12:11:11;;;;;;;;;;;20.50;99.90;;;;;;5153862;27;19915;-71
2022/01/19 12:16:14;;;;;;;;;;;20.60;99.90;;;;;;5153795;27;20331;-71
2022/01/19 12:18:43;;;;;;;;;;;20.60;99.90;;;;;;5154090;27;20211;-70
2022/01/19 12:21:11;;;;;;;;;;;20.50;99.90;;;;;;5154138;27;20386;-71
2022/01/19 12:23:39;;;;;;;;;;;20.40;99.90;;;;;;5153941;27;19930;-71
2022/01/19 12:26:10;;;;;;;;;;;20.50;99.90;;;;;;5153495;27;19907;-71
2022/01/19 12:28:40;;;;;;;;;;;20.50;99.90;;;;;;5153851;27;19914;-71
2022/01/19 12:31:36;;;;;;;;;;;20.50;99.90;;;;;;5153974;27;19914;-71
2022/01/19 12:34:03;;;;;;;;;;;20.40;99.90;;;;;;5131818;27;19918;-74
2022/01/19 12:36:48;;;;;;;;;;;20.50;99.90;;;;;;5153659;27;19915;-70
2022/01/19 12:39:23;;;;;;;;;;;20.50;99.90;;;;;;5154061;27;19907;-70
2022/01/19 12:41:53;;;;;;;;;;;20.50;99.90;;;;;;5154358;27;20265;-70
2022/01/19 12:44:39;;;;;;;;;;;20.50;99.90;;;;;;5157622;27;19907;-70
2022/01/19 12:47:28;;;;;;;;;;;20.50;99.90;;;;;;5157659;27;19907;-69
2022/01/19 12:50:04;;;;;;;;;;;20.50;99.90;;;;;;5157289;27;19907;-70
2022/01/19 12:52:33;;;;;;;;;;;20.50;99.90;;;;;;5157614;27;19907;-70
2022/01/19 12:55:20;;;;;;;;;;;20.50;99.90;;;;;;5157174;27;19983;-70
2022/01/19 12:57:47;;;;;;;;;;;20.40;99.90;;;;;;5157111;27;19946;-70
2022/01/19 13:00:18;;;;;;;;;;;20.40;99.90;;;;;;5157712;27;19955;-70
2022/01/19 13:02:45;;;;;;;;;;;20.30;99.90;;;;;;5157615;27;19953;-71
2022/01/19 13:05:14;;;;;;;;;;;20.30;99.90;;;;;;5157486;27;19959;-70
2022/01/19 13:07:43;;;;;;;;;;;20.30;99.90;;;;;;5157121;27;19914;-70
2022/01/19 13:13:12;;;;;;;;;;;20.40;99.90;;;;;;5114335;27;20415;-70
2022/01/19 13:15:41;;;;;;;;;;;20.30;99.90;;;;;;5156941;27;19922;-70
2022/01/19 13:18:08;;;;;;;;;;;20.40;99.90;;;;;;5156578;27;19907;-70
2022/01/19 13:20:35;;;;;;;;;;;20.40;99.90;;;;;;5157101;27;20008;-71
2022/01/19 13:23:04;;;;;;;;;;;20.50;99.90;;;;;;5157090;27;19907;-71
2022/01/19 13:25:32;;;;;;;;;;;20.50;99.90;;;;;;5157115;27;20377;-71
2022/01/19 13:28:01;;;;;;;;;;;20.50;99.90;;;;;;5156720;27;19907;-71
2022/01/19 13:30:32;;;;;;;;;;;20.50;99.90;;;;;;5156917;27;20276;-71
2022/01/19 13:33:08;;;;;;;;;;;20.40;99.90;;;;;;5156883;27;19918;-72
2022/01/19 13:35:35;;;;;;;;;;;20.40;99.90;;;;;;5156775;27;19915;-71
2022/01/19 13:38:09;;;;;;;;;;;20.40;99.90;;;;;;5156586;27;20422;-71
2022/01/19 13:40:35;;;;;;;;;;;20.40;99.90;;;;;;5156824;27;19918;-70
2022/01/19 13:43:08;;;;;;;;;;;20.40;99.90;;;;;;5156454;27;19907;-70
2022/01/19 13:50:42;;;;;;;;;;;20.30;99.90;;;;;;5156414;27;20277;-70
2022/01/19 13:53:09;;;;;;;;;;;20.20;99.90;;;;;;5156467;27;19972;-70
2022/01/19 13:55:36;;;;;;;;;;;20.20;99.90;;;;;;5156174;27;20009;-70
2022/01/19 13:58:12;;;;;;;;;;;20.20;99.90;;;;;;5156057;27;19911;-70
2022/01/19 14:00:52;;;;;;;;;;;20.20;99.90;;;;;;5156213;27;19946;-70
2022/01/19 14:03:20;;;;;;;;;;;20.20;99.90;;;;;;5156283;27;19985;-70
2022/01/19 14:05:48;;;;;;;;;;;20.20;99.90;;;;;;5154451;27;20404;-70
2022/01/19 14:08:15;;;;;;;;;;;20.30;99.90;;;;;;5155931;27;19942;-70
2022/01/19 14:10:46;;;;;;;;;;;20.30;99.90;;;;;;5156164;27;20341;-71
2022/01/19 14:13:21;;;;;;;;;;;20.40;99.90;;;;;;5155980;27;19907;-70
2022/01/19 14:15:48;;;;;;;;;;;20.40;99.90;;;;;;5155693;27;19915;-70
2022/01/19 14:18:15;;;;;;;;;;;20.40;99.90;;;;;;5156026;27;19939;-70
2022/01/19 14:20:41;;;;;;;;;;;20.50;99.90;;;;;;5155645;27;19907;-70
2022/01/19 14:23:09;;;;;;;;;;;20.40;99.90;;;;;;5156233;27;20270;-71
2022/01/19 14:25:36;;;;;;;;;;;20.50;99.90;;;;;;5155828;27;20376;-71
2022/01/19 14:28:12;;;;;;;;;;;20.50;99.90;;;;;;5155352;27;19907;-71
2022/01/19 14:30:41;;;;;;;;;;;20.50;99.90;;;;;;5155797;27;19907;-71
2022/01/19 14:33:14;;;;;;;;;;;20.40;99.90;;;;;;5155473;27;19907;-70
2022/01/19 14:35:45;;;;;;;;;;;20.40;99.90;;;;;;5155332;27;19922;-71
2022/01/19 14:38:15;;;;;;;;;;;20.30;99.90;;;;;;5155384;27;19951;-71
2022/01/19 14:41:10;;;;;;;;;;;20.30;99.90;;;;;;5155350;27;19907;-70
2022/01/19 14:43:58;;;;;;;;;;;20.40;99.90;;;;;;5133148;27;19990;-71
2022/01/19 14:46:46;;;;;;;;;;;20.30;99.90;;;;;;5155411;27;19907;-71
2022/01/19 14:49:12;;;;;;;;;;;20.30;99.90;;;;;;5155175;27;19914;-70
2022/01/19 14:51:40;;;;;;;;;;;20.20;99.90;;;;;;5155097;27;20006;-71
2022/01/19 14:54:09;;;;;;;;;;;20.20;99.90;;;;;;5154921;27;19907;-71
2022/01/19 14:56:38;;;;;;;;;;;20.20;99.90;;;;;;5155015;27;19919;-71
2022/01/19 14:59:06;;;;;;;;;;;20.10;99.90;;;;;;5155153;27;19907;-71
2022/01/19 15:01:34;;;;;;;;;;;20.10;99.90;;;;;;5154975;27;19946;-70
2022/01/19 15:04:01;;;;;;;;;;;20.10;99.90;;;;;;5154468;27;19998;-71
2022/01/19 15:06:28;;;;;;;;;;;20.10;99.90;;;;;;5154599;27;19946;-71
2022/01/19 15:08:54;;;;;;;;;;;20.10;99.90;;;;;;5154912;27;19907;-70
2022/01/19 15:11:21;;;;;;;;;;;20.20;99.90;;;;;;5154889;27;19907;-71
2022/01/19 15:13:48;;;;;;;;;;;20.20;99.90;;;;;;5154353;27;19907;-70
2022/01/19 15:16:15;;;;;;;;;;;20.10;99.90;;;;;;5154513;27;19915;-70
2022/01/19 15:18:43;;;;;;;;;;;20.20;99.90;;;;;;5154778;27;19907;-70
2022/01/19 15:21:10;;;;;;;;;;;20.10;99.90;;;;;;5154869;27;19908;-70
2022/01/19 15:23:37;;;;;;;;;;;20.10;99.90;;;;;;5154717;27;19959;-71
2022/01/19 15:26:03;;;;;;;;;;;20.10;99.90;;;;;;5154444;27;20318;-70
2022/01/19 15:28:30;;;;;;;;;;;20.10;99.90;;;;;;5154384;27;20365;-70
2022/01/19 15:31:00;;;;;;;;;;;20.10;99.90;;;;;;5154330;27;20009;-70
2022/01/19 15:33:27;;;;;;;;;;;20.20;99.90;;;;;;5154344;27;19907;-70
2022/01/19 15:35:54;;;;;;;;;;;20.20;99.90;;;;;;5154132;27;19958;-70
2022/01/19 15:38:22;;;;;;;;;;;20.30;99.90;;;;;;5154287;27;19907;-70
2022/01/19 15:40:49;;;;;;;;;;;20.30;99.90;;;;;;5154410;27;19907;-71
2022/01/19 15:43:18;;;;;;;;;;;20.30;99.90;;;;;;5154395;27;19911;-70
2022/01/19 15:45:49;;;;;;;;;;;20.30;99.90;;;;;;5154390;27;20396;-70
2022/01/19 15:48:16;;;;;;;;;;;20.30;99.90;;;;;;5154537;27;19907;-70
2022/01/19 15:50:43;;;;;;;;;;;20.30;99.90;;;;;;5154321;27;20373;-70
2022/01/19 15:53:10;;;;;;;;;;;20.30;99.90;;;;;;5154359;27;19911;-70
2022/01/19 15:55:37;;;;;;;;;;;20.20;99.90;;;;;;5154023;27;20002;-71
2022/01/19 15:58:03;;;;;;;;;;;20.30;99.90;;;;;;5153810;27;19923;-70
2022/01/19 16:00:30;;;;;;;;;;;20.30;99.90;;;;;;5154175;27;19907;-70
2022/01/19 16:02:57;;;;;;;;;;;20.30;99.90;;;;;;5154124;27;19953;-70
2022/01/19 16:05:24;;;;;;;;;;;20.20;99.90;;;;;;5153974;27;19918;-70
2022/01/19 16:07:50;;;;;;;;;;;20.30;99.90;;;;;;5153946;27;19915;-70
2022/01/19 16:10:17;;;;;;;;;;;20.30;99.90;;;;;;5154239;27;19914;-70
2022/01/19 16:12:44;;;;;;;;;;;20.20;99.90;;;;;;5153946;27;19918;-70
2022/01/19 16:15:12;;;;;;;;;;;20.20;99.90;;;;;;5154013;27;19915;-70
2022/01/19 16:17:41;;;;;;;;;;;20.20;99.90;;;;;;5156294;27;19915;-69
2022/01/19 16:20:10;;;;;;;;;;;20.20;99.90;;;;;;5158171;27;19907;-70